Time;durP1;ratioP1;P1;durP2;ratioP2;P2;SDS_P1;SDS_P2;PMS_P1;PMS_P2;Temp;Humidity;BMP_temperature;BMP_pressure;BME280_temperature;BME280_humidity;BME280_pressure;Samples;Min_cycle;Max_cycle;Signal;HPM_P1;HPM_P2
2021/04/19 00:02:35;;;;;;;28.80;19.17;;;;;;;;;;5055145;28;20051;-63
2021/04/19 00:05:21;;;;;;;35.05;22.13;;;;;;;;;;5059778;28;20052;-63
2021/04/19 00:08:06;;;;;;;36.38;20.95;;;;;;;;;;5074137;28;20491;-64
2021/04/19 00:10:51;;;;;;;33.25;21.27;;;;;;;;;;5059558;28;20048;-63
2021/04/19 00:13:36;;;;;;;32.20;22.13;;;;;;;;;;5073525;28;20051;-63
2021/04/19 00:16:22;;;;;;;30.48;20.30;;;;;;;;;;5075036;28;20130;-63
2021/04/19 00:19:07;;;;;;;31.45;20.20;;;;;;;;;;5074930;28;20046;-63
2021/04/19 00:21:53;;;;;;;30.08;20.38;;;;;;;;;;5075008;28;20144;-63
2021/04/19 00:24:39;;;;;;;35.47;21.70;;;;;;;;;;5073208;28;20118;-63
2021/04/19 00:27:24;;;;;;;31.00;20.95;;;;;;;;;;5069475;28;20052;-63
2021/04/19 00:30:10;;;;;;;32.17;21.17;;;;;;;;;;5054487;28;20045;-63
2021/04/19 00:32:55;;;;;;;32.03;21.85;;;;;;;;;;5054551;28;20522;-63
2021/04/19 00:35:40;;;;;;;34.35;22.27;;;;;;;;;;5054733;28;20048;-63
2021/04/19 00:38:26;;;;;;;34.55;20.80;;;;;;;;;;5064688;28;20127;-63
2021/04/19 00:41:11;;;;;;;31.70;21.25;;;;;;;;;;5074658;28;20049;-63
2021/04/19 00:43:57;;;;;;;33.30;21.20;;;;;;;;;;5074660;28;20044;-63
2021/04/19 00:46:42;;;;;;;34.83;24.00;;;;;;;;;;5073672;28;20383;-63
2021/04/19 00:49:28;;;;;;;35.17;22.77;;;;;;;;;;5056625;28;20049;-63
2021/04/19 00:52:13;;;;;;;42.45;25.52;;;;;;;;;;5054447;28;20106;-63
2021/04/19 00:54:58;;;;;;;42.83;27.70;;;;;;;;;;5054517;28;20055;-63
2021/04/19 00:57:44;;;;;;;38.42;26.08;;;;;;;;;;5054462;28;20041;-63
2021/04/19 01:00:31;;;;;;;40.75;27.20;;;;;;;;;;5034412;28;20064;-63
2021/04/19 01:03:16;;;;;;;51.80;29.95;;;;;;;;;;5019563;28;20057;-63
2021/04/19 01:06:03;;;;;;;49.42;32.70;;;;;;;;;;5034323;28;20037;-63
2021/04/19 01:08:48;;;;;;;46.10;30.67;;;;;;;;;;5045069;28;20098;-63
2021/04/19 01:11:34;;;;;;;50.67;31.20;;;;;;;;;;5073902;28;20041;-63
2021/04/19 01:14:19;;;;;;;53.97;32.55;;;;;;;;;;5058822;28;20044;-63
2021/04/19 01:17:05;;;;;;;43.95;29.13;;;;;;;;;;5073785;28;20049;-63
2021/04/19 01:19:51;;;;;;;36.67;25.40;;;;;;;;;;5047216;28;20053;-63
2021/04/19 01:22:37;;;;;;;35.22;23.10;;;;;;;;;;5053829;28;20144;-63
2021/04/19 01:25:28;;;;;;;42.70;26.35;;;;;;;;;;5053729;28;20045;-63
2021/04/19 01:28:13;;;;;;;42.08;29.15;;;;;;;;;;5053851;28;20139;-63
2021/04/19 01:30:58;;;;;;;38.88;26.60;;;;;;;;;;5070746;28;20080;-63
2021/04/19 01:33:45;;;;;;;42.10;25.13;;;;;;;;;;5073432;28;20044;-63
2021/04/19 01:36:31;;;;;;;32.88;23.75;;;;;;;;;;5073507;28;20041;-63
2021/04/19 01:39:17;;;;;;;34.25;24.52;;;;;;;;;;5072710;28;20040;-63
2021/04/19 01:42:03;;;;;;;37.10;25.30;;;;;;;;;;5053404;28;20037;-63
2021/04/19 01:44:49;;;;;;;38.90;25.73;;;;;;;;;;5053227;28;20079;-63
2021/04/19 01:47:34;;;;;;;37.75;25.08;;;;;;;;;;5038330;28;20048;-63
2021/04/19 01:50:21;;;;;;;33.60;22.00;;;;;;;;;;5044138;28;20250;-63
2021/04/19 01:53:10;;;;;;;26.38;20.20;;;;;;;;;;5058421;28;20131;-63
2021/04/19 01:55:55;;;;;;;31.25;18.42;;;;;;;;;;5057977;28;20052;-63
2021/04/19 01:58:41;;;;;;;27.85;20.88;;;;;;;;;;5057304;28;20048;-63
2021/04/19 02:01:27;;;;;;;29.40;18.95;;;;;;;;;;5066413;28;20145;-63
2021/04/19 02:04:13;;;;;;;30.20;21.25;;;;;;;;;;5057919;28;20442;-63
2021/04/19 02:07:20;;;;;;;32.28;22.67;;;;;;;;;;5071920;28;20099;-63
2021/04/19 02:10:33;;;;;;;30.60;21.05;;;;;;;;;;5057645;28;20414;-63
2021/04/19 02:13:37;;;;;;;31.08;21.77;;;;;;;;;;5012874;28;20049;-63
2021/04/19 02:16:30;;;;;;;30.65;22.25;;;;;;;;;;5017996;28;20141;-63
2021/04/19 02:19:30;;;;;;;34.45;22.45;;;;;;;;;;5017882;28;20053;-63
2021/04/19 02:22:20;;;;;;;30.15;22.15;;;;;;;;;;5051145;28;20049;-63
2021/04/19 02:25:17;;;;;;;35.47;22.42;;;;;;;;;;5057498;28;20048;-63
2021/04/19 02:28:09;;;;;;;28.88;22.50;;;;;;;;;;5071554;28;20059;-63
2021/04/19 02:31:00;;;;;;;31.27;22.83;;;;;;;;;;5057165;28;20052;-63
2021/04/19 02:33:45;;;;;;;34.60;23.60;;;;;;;;;;5052336;28;20072;-63
2021/04/19 02:36:30;;;;;;;31.15;21.00;;;;;;;;;;5051315;28;20131;-63
2021/04/19 02:39:17;;;;;;;30.92;22.63;;;;;;;;;;5037229;28;20503;-63
2021/04/19 02:42:02;;;;;;;28.83;20.00;;;;;;;;;;5043066;28;20050;-63
2021/04/19 02:44:48;;;;;;;28.00;21.25;;;;;;;;;;5057512;28;20048;-63
2021/04/19 02:48:07;;;;;;;28.15;20.60;;;;;;;;;;5037962;28;20052;-63
2021/04/19 02:51:02;;;;;;;29.63;19.67;;;;;;;;;;5057054;28;20495;-63
2021/04/19 02:53:48;;;;;;;28.67;21.73;;;;;;;;;;5052845;28;20484;-63
2021/04/19 02:56:34;;;;;;;29.70;21.08;;;;;;;;;;5052136;28;20041;-63
2021/04/19 02:59:23;;;;;;;29.98;21.80;;;;;;;;;;5037698;28;20045;-63
2021/04/19 03:02:09;;;;;;;32.03;20.83;;;;;;;;;;5052508;28;20131;-63
2021/04/19 03:04:54;;;;;;;29.65;19.38;;;;;;;;;;5072320;28;20045;-63
2021/04/19 03:07:41;;;;;;;31.60;19.83;;;;;;;;;;5072437;28;20045;-63
2021/04/19 03:10:26;;;;;;;24.65;19.13;;;;;;;;;;5072406;28;20055;-63
2021/04/19 03:13:11;;;;;;;26.95;20.35;;;;;;;;;;5064690;28;20102;-63
2021/04/19 03:15:58;;;;;;;26.42;18.95;;;;;;;;;;5037293;28;20252;-63
2021/04/19 03:18:44;;;;;;;25.58;19.25;;;;;;;;;;5037846;28;20080;-63
2021/04/19 03:21:34;;;;;;;26.85;18.52;;;;;;;;;;5052200;28;20053;-63
2021/04/19 03:24:27;;;;;;;25.42;18.40;;;;;;;;;;5065437;28;20055;-63
2021/04/19 03:27:20;;;;;;;24.63;19.40;;;;;;;;;;5071486;28;20146;-63
2021/04/19 03:30:14;;;;;;;24.83;17.60;;;;;;;;;;5056785;28;20057;-63
2021/04/19 03:33:08;;;;;;;23.40;19.10;;;;;;;;;;5056064;28;20048;-63
2021/04/19 03:35:53;;;;;;;27.10;19.20;;;;;;;;;;5037216;28;20048;-63
2021/04/19 03:38:39;;;;;;;29.23;17.98;;;;;;;;;;5037227;28;20131;-63
2021/04/19 03:41:24;;;;;;;24.95;18.20;;;;;;;;;;5050903;28;20518;-63
2021/04/19 03:44:12;;;;;;;24.77;19.20;;;;;;;;;;5057064;28;20414;-63
2021/04/19 03:46:59;;;;;;;26.08;18.15;;;;;;;;;;5057078;28;20071;-63
2021/04/19 03:49:57;;;;;;;25.95;18.42;;;;;;;;;;5056887;28;20055;-63
2021/04/19 03:52:45;;;;;;;26.52;19.00;;;;;;;;;;5057317;28;20406;-63
2021/04/19 03:55:31;;;;;;;27.75;20.63;;;;;;;;;;5042277;28;20064;-63
2021/04/19 03:58:16;;;;;;;26.52;19.13;;;;;;;;;;5036833;28;20037;-63
2021/04/19 04:01:06;;;;;;;26.23;19.15;;;;;;;;;;5051065;28;20049;-63
2021/04/19 04:04:12;;;;;;;28.83;18.77;;;;;;;;;;5052483;28;20505;-63
2021/04/19 04:07:14;;;;;;;29.73;20.55;;;;;;;;;;5037173;28;20186;-63
2021/04/19 04:10:07;;;;;;;28.48;20.15;;;;;;;;;;5036512;28;20519;-63
2021/04/19 04:12:54;;;;;;;29.05;20.65;;;;;;;;;;5038135;28;20479;-63
2021/04/19 04:15:51;;;;;;;27.65;20.05;;;;;;;;;;5056855;28;20434;-63
2021/04/19 04:18:37;;;;;;;27.63;20.65;;;;;;;;;;5056421;28;20044;-63
2021/04/19 04:21:25;;;;;;;27.65;19.55;;;;;;;;;;5056972;28;20049;-63
2021/04/19 04:24:15;;;;;;;24.25;17.73;;;;;;;;;;5064897;28;20049;-63
2021/04/19 04:27:00;;;;;;;29.90;19.98;;;;;;;;;;5054985;28;20053;-63
2021/04/19 04:29:47;;;;;;;29.30;19.15;;;;;;;;;;5040212;28;20049;-63
2021/04/19 04:32:50;;;;;;;24.45;18.42;;;;;;;;;;5040077;28;20037;-63
2021/04/19 04:35:40;;;;;;;29.00;19.90;;;;;;;;;;5058456;28;20870;-63
2021/04/19 04:38:32;;;;;;;26.05;18.80;;;;;;;;;;5059970;28;20044;-63
2021/04/19 04:41:19;;;;;;;27.33;20.60;;;;;;;;;;5059863;28;20052;-63
2021/04/19 04:44:05;;;;;;;28.80;21.10;;;;;;;;;;5072213;28;20044;-63
2021/04/19 04:46:56;;;;;;;32.55;23.95;;;;;;;;;;5055010;28;20053;-63
2021/04/19 04:49:48;;;;;;;34.30;22.58;;;;;;;;;;5053594;28;20128;-63
2021/04/19 04:52:38;;;;;;;35.70;21.52;;;;;;;;;;5054081;28;20124;-63
2021/04/19 04:55:23;;;;;;;32.90;21.83;;;;;;;;;;5050018;28;20048;-63
2021/04/19 04:58:08;;;;;;;30.40;22.50;;;;;;;;;;5074958;28;20041;-63
2021/04/19 05:00:54;;;;;;;29.67;21.13;;;;;;;;;;5073602;28;20052;-63
2021/04/19 05:03:39;;;;;;;31.55;21.65;;;;;;;;;;5073588;28;20086;-63
2021/04/19 05:06:25;;;;;;;30.08;22.10;;;;;;;;;;5062461;28;20044;-63
2021/04/19 05:09:10;;;;;;;29.55;20.95;;;;;;;;;;5059694;28;20106;-63
2021/04/19 05:11:56;;;;;;;30.65;22.65;;;;;;;;;;5058276;28;20060;-63
2021/04/19 05:14:42;;;;;;;29.65;21.70;;;;;;;;;;5069656;28;20138;-63
2021/04/19 05:17:27;;;;;;;33.97;22.15;;;;;;;;;;5074715;28;20049;-63
2021/04/19 05:20:13;;;;;;;28.85;21.40;;;;;;;;;;5074176;28;20048;-64
2021/04/19 05:22:58;;;;;;;30.80;21.73;;;;;;;;;;5074262;28;20494;-64
2021/04/19 05:25:44;;;;;;;28.40;21.10;;;;;;;;;;5034245;28;20391;-64
2021/04/19 05:28:29;;;;;;;24.88;19.80;;;;;;;;;;5034194;28;20045;-64
2021/04/19 05:31:15;;;;;;;31.90;20.63;;;;;;;;;;5033653;28;20041;-64
2021/04/19 05:34:00;;;;;;;28.52;19.60;;;;;;;;;;5040227;28;20123;-63
2021/04/19 05:36:45;;;;;;;27.33;19.63;;;;;;;;;;5073497;28;20048;-63
2021/04/19 05:39:34;;;;;;;26.00;18.90;;;;;;;;;;5073439;28;20051;-63
2021/04/19 05:42:19;;;;;;;22.17;17.13;;;;;;;;;;5073689;28;20527;-63
2021/04/19 05:45:05;;;;;;;24.98;17.92;;;;;;;;;;5048150;28;20048;-63
2021/04/19 05:47:50;;;;;;;30.83;18.95;;;;;;;;;;5052620;28;20091;-63
2021/04/19 05:50:35;;;;;;;24.67;18.35;;;;;;;;;;5053049;28;20384;-63
2021/04/19 05:53:21;;;;;;;22.02;16.83;;;;;;;;;;5053114;28;20041;-63
2021/04/19 05:56:06;;;;;;;23.52;16.95;;;;;;;;;;5052369;28;20049;-64
2021/04/19 05:58:55;;;;;;;24.98;16.67;;;;;;;;;;5052006;28;20128;-64
2021/04/19 06:01:41;;;;;;;23.80;16.10;;;;;;;;;;5053087;28;20051;-63
2021/04/19 06:04:53;;;;;;;21.05;14.38;;;;;;;;;;5051888;28;20487;-63
2021/04/19 06:07:42;;;;;;;19.40;15.45;;;;;;;;;;5051517;28;20044;-64
2021/04/19 06:10:52;;;;;;;24.90;16.60;;;;;;;;;;5044925;28;20057;-63
2021/04/19 06:13:48;;;;;;;21.88;15.85;;;;;;;;;;5057731;28;20105;-63
2021/04/19 06:16:37;;;;;;;21.42;15.95;;;;;;;;;;5071044;28;20048;-63
2021/04/19 06:19:45;;;;;;;22.65;15.48;;;;;;;;;;5057608;28;20048;-63
2021/04/19 06:22:31;;;;;;;23.25;16.52;;;;;;;;;;5072578;28;20521;-64
2021/04/19 06:25:16;;;;;;;17.70;14.15;;;;;;;;;;5071162;28;20040;-64
2021/04/19 06:28:02;;;;;;;16.50;14.00;;;;;;;;;;5057175;28;20415;-64
2021/04/19 06:30:49;;;;;;;18.02;14.05;;;;;;;;;;5072229;28;20123;-64
2021/04/19 06:33:34;;;;;;;18.13;13.40;;;;;;;;;;5071318;28;20045;-65
2021/04/19 06:36:19;;;;;;;16.73;12.98;;;;;;;;;;5066202;28;20037;-64
2021/04/19 06:39:05;;;;;;;21.70;15.07;;;;;;;;;;5052432;28;20087;-64
2021/04/19 06:41:50;;;;;;;17.73;14.10;;;;;;;;;;5052239;28;20053;-64
2021/04/19 06:44:36;;;;;;;18.52;13.32;;;;;;;;;;5051783;28;20124;-64
2021/04/19 06:47:21;;;;;;;22.80;13.50;;;;;;;;;;5063884;28;20052;-64
2021/04/19 06:50:07;;;;;;;17.17;13.50;;;;;;;;;;5071995;28;20060;-64
2021/04/19 06:52:52;;;;;;;21.00;13.07;;;;;;;;;;5072100;28;20406;-63
2021/04/19 06:55:39;;;;;;;15.52;12.48;;;;;;;;;;5072128;28;20036;-64
2021/04/19 06:58:24;;;;;;;13.68;11.57;;;;;;;;;;5054553;28;20554;-64
2021/04/19 07:01:09;;;;;;;15.82;11.93;;;;;;;;;;5050809;28;20506;-64
2021/04/19 07:04:00;;;;;;;20.88;13.70;;;;;;;;;;5051153;28;20072;-64
2021/04/19 07:06:45;;;;;;;14.40;11.00;;;;;;;;;;5068032;28;20270;-64
2021/04/19 07:09:31;;;;;;;17.00;12.85;;;;;;;;;;5070829;28;20048;-64
2021/04/19 07:12:19;;;;;;;16.40;11.40;;;;;;;;;;5070938;28;20123;-64
2021/04/19 07:15:05;;;;;;;19.75;12.48;;;;;;;;;;5071264;28;20049;-64
2021/04/19 07:17:50;;;;;;;14.50;12.45;;;;;;;;;;5051741;28;20041;-64
2021/04/19 07:20:35;;;;;;;15.18;12.27;;;;;;;;;;5051766;28;20049;-64
2021/04/19 07:23:21;;;;;;;18.75;12.82;;;;;;;;;;5051794;28;20092;-64
2021/04/19 07:26:06;;;;;;;17.77;12.35;;;;;;;;;;5057598;28;20141;-64
2021/04/19 07:28:52;;;;;;;17.33;12.57;;;;;;;;;;5071940;28;20052;-64
2021/04/19 07:31:46;;;;;;;18.75;13.15;;;;;;;;;;5071539;28;20445;-64
2021/04/19 07:34:32;;;;;;;18.92;13.15;;;;;;;;;;5071581;28;20059;-64
2021/04/19 07:37:17;;;;;;;15.25;11.80;;;;;;;;;;5058593;28;20045;-63
2021/04/19 07:40:03;;;;;;;16.65;12.88;;;;;;;;;;5051462;28;20045;-64
2021/04/19 07:42:48;;;;;;;18.08;11.68;;;;;;;;;;5051549;28;20049;-63
2021/04/19 07:45:34;;;;;;;14.43;11.45;;;;;;;;;;5050811;28;20057;-63
2021/04/19 07:48:28;;;;;;;15.18;10.73;;;;;;;;;;5051069;28;20045;-64
2021/04/19 07:51:23;;;;;;;16.75;10.95;;;;;;;;;;5051210;28;20167;-63
2021/04/19 07:54:14;;;;;;;14.45;11.50;;;;;;;;;;5051495;28;20542;-64
2021/04/19 07:56:59;;;;;;;18.98;11.70;;;;;;;;;;5057803;28;20040;-63
2021/04/19 07:59:44;;;;;;;56.80;15.57;;;;;;;;;;5075026;28;20123;-64
2021/04/19 08:02:30;;;;;;;17.58;11.68;;;;;;;;;;5060394;28;20406;-63
2021/04/19 08:05:15;;;;;;;19.45;11.00;;;;;;;;;;5074174;28;20052;-64
2021/04/19 08:08:01;;;;;;;16.20;11.27;;;;;;;;;;5071816;28;20044;-63
2021/04/19 08:10:47;;;;;;;15.23;10.60;;;;;;;;;;5062045;28;20049;-64
2021/04/19 08:13:32;;;;;;;13.35;10.57;;;;;;;;;;5077266;28;20129;-64
2021/04/19 08:16:17;;;;;;;11.57;10.38;;;;;;;;;;5077059;28;20127;-64
2021/04/19 08:19:03;;;;;;;15.85;10.90;;;;;;;;;;5062216;28;20041;-64
2021/04/19 08:21:49;;;;;;;15.25;10.57;;;;;;;;;;5055766;28;20045;-64
2021/04/19 08:24:35;;;;;;;16.63;10.15;;;;;;;;;;5056068;28;20041;-64
2021/04/19 08:27:21;;;;;;;14.05;10.50;;;;;;;;;;5056805;28;20049;-64
2021/04/19 08:30:06;;;;;;;16.88;11.07;;;;;;;;;;5036360;28;20495;-64
2021/04/19 08:32:52;;;;;;;13.00;11.40;;;;;;;;;;5022473;28;20049;-64
2021/04/19 08:35:37;;;;;;;14.02;10.77;;;;;;;;;;5034313;28;20049;-64
2021/04/19 08:38:22;;;;;;;49.80;13.50;;;;;;;;;;5039918;28;20069;-63
2021/04/19 08:41:07;;;;;;;15.70;11.52;;;;;;;;;;5054199;28;20041;-63
2021/04/19 08:43:53;;;;;;;18.73;11.85;;;;;;;;;;5053689;28;20049;-63
2021/04/19 08:46:38;;;;;;;153.85;42.38;;;;;;;;;;5039451;28;20127;-64
2021/04/19 08:49:23;;;;;;;18.67;11.63;;;;;;;;;;5064279;28;20053;-64
2021/04/19 08:52:09;;;;;;;14.30;10.57;;;;;;;;;;5064100;28;20045;-63
2021/04/19 08:54:54;;;;;;;12.57;10.93;;;;;;;;;;5061222;28;20049;-64
2021/04/19 08:57:41;;;;;;;12.98;11.35;;;;;;;;;;5047015;28;20139;-63
2021/04/19 09:00:26;;;;;;;14.55;10.82;;;;;;;;;;5066062;28;20123;-63
2021/04/19 09:03:11;;;;;;;13.85;10.60;;;;;;;;;;5074168;28;20040;-63
2021/04/19 09:05:57;;;;;;;18.40;10.43;;;;;;;;;;5074205;28;20041;-63
2021/04/19 09:08:43;;;;;;;12.75;9.35;;;;;;;;;;5073849;28;20117;-63
2021/04/19 09:11:28;;;;;;;13.48;10.50;;;;;;;;;;5073702;28;20048;-63
2021/04/19 09:14:16;;;;;;;14.52;10.45;;;;;;;;;;5073855;28;20072;-63
2021/04/19 09:17:01;;;;;;;17.00;11.43;;;;;;;;;;5073624;28;20049;-64
2021/04/19 09:19:47;;;;;;;14.38;10.80;;;;;;;;;;5070183;28;20048;-64
2021/04/19 09:22:32;;;;;;;14.50;11.43;;;;;;;;;;5040218;28;20045;-64
2021/04/19 09:25:17;;;;;;;13.82;11.68;;;;;;;;;;5054910;28;20045;-64
2021/04/19 09:28:02;;;;;;;18.58;11.77;;;;;;;;;;5054758;28;20040;-63
2021/04/19 09:30:48;;;;;;;18.02;11.25;;;;;;;;;;5063813;28;20040;-64
2021/04/19 09:33:33;;;;;;;16.50;11.50;;;;;;;;;;5074412;28;20076;-64
2021/04/19 09:36:39;;;;;;;13.02;11.43;;;;;;;;;;5074005;28;20044;-64
2021/04/19 09:39:42;;;;;;;13.98;11.05;;;;;;;;;;5073749;28;20406;-63
2021/04/19 09:42:46;;;;;;;16.02;11.60;;;;;;;;;;5034159;28;20068;-63
2021/04/19 09:45:51;;;;;;;17.05;12.40;;;;;;;;;;5034084;28;20120;-63
2021/04/19 09:48:38;;;;;;;14.55;12.32;;;;;;;;;;5033821;28;20045;-64
2021/04/19 09:51:24;;;;;;;16.63;13.27;;;;;;;;;;5050849;28;20087;-64
2021/04/19 09:54:12;;;;;;;13.75;11.68;;;;;;;;;;5073143;28;20135;-64
2021/04/19 09:56:58;;;;;;;14.90;12.25;;;;;;;;;;5073484;28;20052;-64
2021/04/19 09:59:43;;;;;;;13.52;12.13;;;;;;;;;;5071989;28;20094;-64
2021/04/19 10:02:28;;;;;;;19.23;13.30;;;;;;;;;;5058216;28;20049;-64
2021/04/19 10:05:14;;;;;;;15.60;13.38;;;;;;;;;;5053217;28;20052;-64
2021/04/19 10:07:59;;;;;;;15.45;13.85;;;;;;;;;;5053537;28;20048;-64
2021/04/19 10:10:45;;;;;;;14.60;13.10;;;;;;;;;;5052302;28;20067;-64
2021/04/19 10:13:31;;;;;;;17.60;13.77;;;;;;;;;;5032357;28;20492;-64
2021/04/19 10:16:17;;;;;;;16.25;12.65;;;;;;;;;;5033351;28;20046;-64
2021/04/19 10:19:03;;;;;;;17.17;13.70;;;;;;;;;;5044956;28;20128;-64
2021/04/19 10:21:57;;;;;;;15.68;12.15;;;;;;;;;;5032227;28;20058;-64
2021/04/19 10:24:58;;;;;;;16.48;13.27;;;;;;;;;;5012853;28;20046;-64
2021/04/19 10:27:44;;;;;;;15.13;13.45;;;;;;;;;;5013089;28;20401;-64
2021/04/19 10:30:31;;;;;;;14.02;11.90;;;;;;;;;;4998559;28;20054;-64
2021/04/19 10:33:25;;;;;;;16.30;12.75;;;;;;;;;;5038116;28;20036;-64
2021/04/19 10:36:14;;;;;;;17.50;12.75;;;;;;;;;;5052555;28;20049;-64
2021/04/19 10:39:00;;;;;;;15.05;11.55;;;;;;;;;;5052230;28;20079;-64
2021/04/19 10:41:47;;;;;;;15.07;11.10;;;;;;;;;;5052543;28;20095;-64
2021/04/19 10:44:38;;;;;;;10.68;9.68;;;;;;;;;;5050433;28;20049;-64
2021/04/19 10:47:28;;;;;;;13.23;10.97;;;;;;;;;;5052452;28;20112;-64
2021/04/19 10:50:14;;;;;;;13.75;11.35;;;;;;;;;;5052204;28;20053;-64
2021/04/19 10:53:00;;;;;;;11.82;9.90;;;;;;;;;;5047009;28;20042;-64
2021/04/19 10:55:57;;;;;;;11.88;10.60;;;;;;;;;;5032226;28;20411;-64
2021/04/19 10:58:43;;;;;;;12.20;10.70;;;;;;;;;;5031908;28;20499;-64
2021/04/19 11:01:29;;;;;;;11.85;10.63;;;;;;;;;;5016904;28;20492;-64
2021/04/19 11:04:15;;;;;;;11.95;9.50;;;;;;;;;;5042904;28;20503;-64
2021/04/19 11:07:19;;;;;;;11.52;10.35;;;;;;;;;;5036982;28;20507;-64
2021/04/19 11:10:23;;;;;;;11.65;10.45;;;;;;;;;;5051754;28;20057;-64
2021/04/19 11:13:09;;;;;;;11.43;10.32;;;;;;;;;;5051919;28;20043;-64
2021/04/19 11:15:57;;;;;;;11.65;10.45;;;;;;;;;;5014368;28;20064;-64
2021/04/19 11:18:44;;;;;;;13.95;9.90;;;;;;;;;;5004653;28;20042;-64
2021/04/19 11:21:36;;;;;;;13.07;11.13;;;;;;;;;;4997523;28;20046;-64
2021/04/19 11:24:22;;;;;;;10.38;9.35;;;;;;;;;;5013167;28;20408;-65
2021/04/19 11:27:08;;;;;;;11.10;9.90;;;;;;;;;;5019841;28;20041;-65
2021/04/19 11:29:54;;;;;;;10.60;9.48;;;;;;;;;;5031484;28;20050;-65
2021/04/19 11:32:39;;;;;;;16.50;11.00;;;;;;;;;;5035328;28;20128;-65
2021/04/19 11:35:26;;;;;;;12.30;10.63;;;;;;;;;;5037083;28;20053;-64
2021/04/19 11:38:12;;;;;;;12.32;11.10;;;;;;;;;;5035584;28;20530;-64
2021/04/19 11:40:59;;;;;;;13.63;11.10;;;;;;;;;;5035483;28;20439;-64
2021/04/19 11:43:51;;;;;;;11.95;10.73;;;;;;;;;;5035610;28;20075;-64
2021/04/19 11:46:40;;;;;;;12.95;11.55;;;;;;;;;;5045888;28;20098;-64
2021/04/19 11:49:26;;;;;;;12.75;10.68;;;;;;;;;;5054847;28;20049;-65
2021/04/19 11:52:11;;;;;;;11.98;10.77;;;;;;;;;;5055576;28;20077;-65
2021/04/19 11:54:57;;;;;;;17.05;11.63;;;;;;;;;;5055181;28;20037;-64
2021/04/19 11:57:43;;;;;;;12.73;11.25;;;;;;;;;;5038456;28;20045;-64
2021/04/19 12:00:29;;;;;;;13.20;11.90;;;;;;;;;;5034890;28;20045;-65
2021/04/19 12:03:15;;;;;;;12.95;11.55;;;;;;;;;;5035124;28;20053;-64
2021/04/19 12:06:02;;;;;;;13.82;12.20;;;;;;;;;;5035277;28;20053;-64
2021/04/19 12:08:49;;;;;;;13.25;10.70;;;;;;;;;;5029120;28;20037;-64
2021/04/19 12:11:35;;;;;;;13.30;11.18;;;;;;;;;;5054817;28;20127;-64
2021/04/19 12:14:21;;;;;;;15.77;11.05;;;;;;;;;;5054949;28;20099;-64
2021/04/19 12:17:07;;;;;;;13.57;12.18;;;;;;;;;;5053327;28;20048;-64
2021/04/19 12:19:52;;;;;;;14.13;12.70;;;;;;;;;;5054532;28;20048;-64
2021/04/19 12:22:38;;;;;;;14.15;11.77;;;;;;;;;;5054748;28;20045;-64
2021/04/19 12:25:24;;;;;;;14.07;11.88;;;;;;;;;;5053851;28;20495;-64
2021/04/19 12:28:10;;;;;;;14.60;11.75;;;;;;;;;;5040790;28;20045;-64
2021/04/19 12:30:55;;;;;;;12.60;10.23;;;;;;;;;;5034562;28;20138;-64
2021/04/19 12:33:41;;;;;;;12.32;10.77;;;;;;;;;;5034615;28;20140;-64
2021/04/19 12:36:30;;;;;;;12.07;10.88;;;;;;;;;;5034602;28;20045;-64
2021/04/19 12:39:16;;;;;;;12.30;11.00;;;;;;;;;;5034646;28;20107;-64
2021/04/19 12:42:02;;;;;;;12.57;11.18;;;;;;;;;;5034007;28;20409;-65
2021/04/19 12:44:47;;;;;;;12.00;10.70;;;;;;;;;;5034487;28;20517;-65
2021/04/19 12:47:33;;;;;;;12.23;11.07;;;;;;;;;;5043983;28;20052;-65
2021/04/19 12:50:18;;;;;;;13.80;11.52;;;;;;;;;;5054089;28;20053;-65
2021/04/19 12:53:07;;;;;;;12.65;11.25;;;;;;;;;;5054222;28;20078;-65
2021/04/19 12:55:53;;;;;;;12.73;11.43;;;;;;;;;;5039494;28;20116;-65
2021/04/19 12:58:42;;;;;;;11.98;10.77;;;;;;;;;;5037934;28;20046;-64
2021/04/19 13:01:27;;;;;;;10.80;9.70;;;;;;;;;;5033959;28;20104;-65
2021/04/19 13:04:17;;;;;;;11.50;10.40;;;;;;;;;;5033962;28;20500;-64
2021/04/19 13:07:03;;;;;;;11.18;10.07;;;;;;;;;;5034275;28;20045;-64
2021/04/19 13:09:48;;;;;;;11.55;10.45;;;;;;;;;;5053762;28;20041;-64
2021/04/19 13:12:34;;;;;;;12.65;11.35;;;;;;;;;;5054102;28;20073;-64
2021/04/19 13:15:20;;;;;;;11.50;10.30;;;;;;;;;;5053802;28;20434;-64
2021/04/19 13:18:06;;;;;;;11.95;10.75;;;;;;;;;;5047797;28;20130;-64
2021/04/19 13:20:52;;;;;;;11.60;10.40;;;;;;;;;;5033353;28;20046;-64
2021/04/19 13:23:38;;;;;;;10.90;9.85;;;;;;;;;;5033644;28;20041;-64
2021/04/19 13:26:24;;;;;;;11.30;10.20;;;;;;;;;;5034024;28;20049;-64
2021/04/19 13:29:10;;;;;;;11.07;9.85;;;;;;;;;;5044885;28;20045;-64
2021/04/19 13:31:55;;;;;;;12.55;10.93;;;;;;;;;;5051237;28;20418;-64
2021/04/19 13:34:41;;;;;;;11.55;9.70;;;;;;;;;;5031418;28;20045;-65
2021/04/19 13:37:26;;;;;;;10.15;9.15;;;;;;;;;;5033591;28;20046;-64
2021/04/19 13:40:13;;;;;;;11.45;10.35;;;;;;;;;;5049470;28;20040;-64
2021/04/19 13:42:59;;;;;;;11.88;10.18;;;;;;;;;;5038606;28;20122;-65
2021/04/19 13:45:45;;;;;;;11.25;10.20;;;;;;;;;;5033871;28;20470;-65
2021/04/19 13:48:30;;;;;;;11.02;9.13;;;;;;;;;;5033474;28;20073;-64
2021/04/19 13:51:16;;;;;;;10.15;9.25;;;;;;;;;;5013353;28;20058;-65
2021/04/19 13:54:02;;;;;;;11.80;10.27;;;;;;;;;;5012698;28;20041;-65
2021/04/19 13:56:47;;;;;;;11.73;10.05;;;;;;;;;;5013541;28;20500;-65
2021/04/19 13:59:33;;;;;;;10.65;9.55;;;;;;;;;;5024025;28;20045;-65
2021/04/19 14:02:18;;;;;;;10.70;9.70;;;;;;;;;;5052978;28;20059;-64
2021/04/19 14:05:04;;;;;;;11.10;10.10;;;;;;;;;;5052715;28;20495;-65
2021/04/19 14:07:50;;;;;;;11.40;10.25;;;;;;;;;;5052735;28;20045;-65
2021/04/19 14:10:36;;;;;;;11.95;10.75;;;;;;;;;;5044359;28;20078;-65
2021/04/19 14:13:21;;;;;;;9.20;8.25;;;;;;;;;;5051831;28;20053;-65
2021/04/19 14:16:08;;;;;;;9.93;8.25;;;;;;;;;;5052631;28;20045;-65
2021/04/19 14:18:53;;;;;;;8.38;7.50;;;;;;;;;;5052467;28;20503;-65
2021/04/19 14:21:40;;;;;;;9.75;8.27;;;;;;;;;;5035463;28;20045;-65
2021/04/19 14:24:25;;;;;;;9.68;8.70;;;;;;;;;;5032359;28;20120;-65
2021/04/19 14:27:11;;;;;;;6.38;5.80;;;;;;;;;;5031462;28;20045;-65
2021/04/19 14:29:57;;;;;;;9.00;8.20;;;;;;;;;;5031102;28;20046;-64
2021/04/19 14:32:43;;;;;;;9.45;8.45;;;;;;;;;;5052454;28;20434;-65
2021/04/19 14:35:29;;;;;;;10.10;9.10;;;;;;;;;;5047252;28;20050;-65
2021/04/19 14:38:15;;;;;;;9.70;8.80;;;;;;;;;;5034031;28;20052;-65
2021/04/19 14:41:00;;;;;;;10.18;9.10;;;;;;;;;;5023922;28;20045;-65
2021/04/19 14:43:46;;;;;;;11.35;10.23;;;;;;;;;;5041566;28;20053;-65
2021/04/19 14:46:32;;;;;;;9.68;8.80;;;;;;;;;;5048297;28;20491;-65
2021/04/19 14:49:20;;;;;;;11.88;8.25;;;;;;;;;;5024291;28;20037;-65
2021/04/19 14:52:06;;;;;;;8.65;7.38;;;;;;;;;;5049603;28;20045;-65
2021/04/19 14:54:52;;;;;;;9.95;8.95;;;;;;;;;;5034073;28;20080;-65
2021/04/19 14:57:38;;;;;;;10.43;9.52;;;;;;;;;;5051990;28;20045;-65
2021/04/19 15:00:24;;;;;;;11.13;9.30;;;;;;;;;;5035850;28;20127;-65
2021/04/19 15:03:10;;;;;;;9.75;8.88;;;;;;;;;;5034295;28;20128;-65
2021/04/19 15:05:56;;;;;;;9.88;8.88;;;;;;;;;;5040319;28;20049;-65
2021/04/19 15:08:42;;;;;;;10.57;9.68;;;;;;;;;;5047841;28;20044;-65
2021/04/19 15:11:27;;;;;;;12.38;9.70;;;;;;;;;;5038292;28;20633;-65
2021/04/19 15:14:13;;;;;;;11.93;9.63;;;;;;;;;;5051471;28;20403;-65
2021/04/19 15:16:59;;;;;;;10.05;8.90;;;;;;;;;;5018898;28;20029;-65
2021/04/19 15:19:46;;;;;;;13.55;10.02;;;;;;;;;;5040933;28;20507;-65
2021/04/19 15:22:32;;;;;;;10.30;9.38;;;;;;;;;;5047201;28;20402;-65
2021/04/19 15:25:17;;;;;;;15.00;9.98;;;;;;;;;;5023750;28;20061;-65
2021/04/19 15:28:03;;;;;;;9.68;8.88;;;;;;;;;;5038914;28;20042;-65
2021/04/19 15:30:48;;;;;;;11.35;10.27;;;;;;;;;;5047845;28;20080;-65
2021/04/19 15:33:34;;;;;;;10.07;9.27;;;;;;;;;;5039713;28;20450;-65
2021/04/19 15:36:20;;;;;;;10.18;9.23;;;;;;;;;;5036575;28;20041;-65
2021/04/19 15:39:09;;;;;;;9.10;8.30;;;;;;;;;;5011706;28;20046;-65
2021/04/19 15:41:54;;;;;;;13.57;10.30;;;;;;;;;;5033851;28;20049;-65
2021/04/19 15:44:40;;;;;;;10.77;9.80;;;;;;;;;;5049708;28;20049;-65
2021/04/19 15:47:26;;;;;;;11.32;10.23;;;;;;;;;;5027156;28;20038;-65
2021/04/19 15:50:12;;;;;;;11.43;10.43;;;;;;;;;;5015571;28;20058;-65
2021/04/19 15:52:58;;;;;;;11.52;10.27;;;;;;;;;;5046892;28;20128;-64
2021/04/19 15:55:43;;;;;;;11.38;10.30;;;;;;;;;;5040670;28;20041;-65
2021/04/19 15:58:29;;;;;;;11.85;10.43;;;;;;;;;;5034730;28;20431;-65
2021/04/19 16:01:15;;;;;;;11.77;10.68;;;;;;;;;;5022602;28;20053;-65
2021/04/19 16:04:00;;;;;;;12.88;11.77;;;;;;;;;;5039272;28;20045;-65
2021/04/19 16:06:46;;;;;;;11.07;10.07;;;;;;;;;;5047443;28;20079;-65
2021/04/19 16:09:32;;;;;;;13.40;12.20;;;;;;;;;;5038548;28;20045;-65
2021/04/19 16:12:17;;;;;;;11.75;10.75;;;;;;;;;;5036648;28;20053;-65
2021/04/19 16:15:03;;;;;;;12.52;11.23;;;;;;;;;;5029433;28;20041;-65
2021/04/19 16:17:50;;;;;;;11.45;10.32;;;;;;;;;;5041140;28;20041;-65